createdAt,value
2022-08-02T04:04:41.111Z,15.70
2022-08-02T04:09:43.077Z,15.60
2022-08-02T04:14:45.749Z,15.60
2022-08-02T04:19:55.400Z,15.60
2022-08-02T04:25:03.762Z,15.70
2022-08-02T04:30:07.679Z,15.80
2022-08-02T04:35:25.279Z,15.80
2022-08-02T04:40:27.452Z,15.80
2022-08-02T04:45:31.103Z,15.80
2022-08-02T04:50:34.040Z,15.80
2022-08-02T04:55:36.105Z,15.80
2022-08-02T05:00:38.516Z,15.80
2022-08-02T05:05:40.558Z,15.70
2022-08-02T05:10:42.532Z,15.80
2022-08-02T05:15:44.551Z,15.80
2022-08-02T05:20:46.510Z,15.90
2022-08-02T05:25:48.511Z,16.00
2022-08-02T05:30:50.807Z,16.20
2022-08-02T05:35:53.123Z,16.30
2022-08-02T05:40:55.324Z,16.50
2022-08-02T05:45:58.488Z,16.60
2022-08-02T05:51:06.358Z,16.70
2022-08-02T05:56:36.297Z,16.90
2022-08-02T06:01:40.814Z,17.00
2022-08-02T06:06:44.808Z,17.00
2022-08-02T06:12:01.778Z,17.10
2022-08-02T06:17:05.450Z,17.30
2022-08-02T06:22:35.712Z,17.40
2022-08-02T06:27:40.812Z,17.50
2022-08-02T06:32:45.185Z,17.70
2022-08-02T06:37:59.658Z,17.90
2022-08-02T06:43:33.498Z,18.00
2022-08-02T06:48:36.853Z,18.10
2022-08-02T06:53:39.079Z,18.30
2022-08-02T06:58:41.210Z,18.40
2022-08-02T07:03:43.249Z,18.60
2022-08-02T07:08:59.442Z,18.70
2022-08-02T07:14:07.651Z,18.80
2022-08-02T07:19:09.668Z,19.10
2022-08-02T07:24:40.081Z,19.40
2022-08-02T07:29:46.054Z,19.70
2022-08-02T07:34:52.820Z,19.90
2022-08-02T07:39:55.462Z,20.00
2022-08-02T07:44:57.612Z,20.20
2022-08-02T07:49:59.579Z,20.30
2022-08-02T07:55:01.685Z,20.40
2022-08-02T08:00:06.662Z,20.70
2022-08-02T08:05:14.786Z,20.90
2022-08-02T08:10:16.774Z,21.20
2022-08-02T08:15:18.711Z,21.50
2022-08-02T08:20:20.643Z,21.70
2022-08-02T08:25:22.647Z,21.90
2022-08-02T08:30:29.181Z,21.90
2022-08-02T08:35:31.145Z,22.00
2022-08-02T08:40:33.388Z,22.30
2022-08-02T08:45:35.670Z,22.30
2022-08-02T08:50:46.631Z,22.10
2022-08-02T08:55:49.566Z,22.20
2022-08-02T09:00:51.742Z,22.50
2022-08-02T09:05:58.036Z,23.10
2022-08-02T09:11:00.202Z,23.60
2022-08-02T09:16:11.476Z,24.40
2022-08-02T09:21:17.352Z,25.10
2022-08-02T09:26:23.206Z,26.30
2022-08-02T09:31:25.714Z,26.80
2022-08-02T09:36:42.814Z,27.30
2022-08-02T09:41:45.880Z,27.60
2022-08-02T09:46:47.874Z,28.20
2022-08-02T09:51:53.366Z,28.40
2022-08-02T09:57:01.891Z,28.60
2022-08-02T10:02:14.781Z,28.70
2022-08-02T10:07:21.580Z,29.00
2022-08-02T10:12:24.810Z,29.00
2022-08-02T10:17:26.864Z,29.40
2022-08-02T10:22:29.486Z,30.00
2022-08-02T10:27:55.130Z,30.60
2022-08-02T10:32:59.274Z,30.00
2022-08-02T10:38:04.709Z,30.40
2022-08-02T10:43:06.684Z,30.50
2022-08-02T10:48:16.601Z,30.60
2022-08-02T10:53:25.518Z,30.60
2022-08-02T10:58:32.401Z,30.80
2022-08-02T11:03:44.800Z,30.20
2022-08-02T11:08:46.753Z,29.70
2022-08-02T11:14:08.795Z,28.30
2022-08-02T11:19:11.917Z,29.00
2022-08-02T11:24:38.688Z,30.10
2022-08-02T11:29:43.064Z,30.00
2022-08-02T11:34:49.199Z,29.60
2022-08-02T11:40:43.124Z,29.90
2022-08-02T11:45:45.507Z,30.40
2022-08-02T11:50:47.480Z,29.60
2022-08-02T11:55:49.448Z,29.30
2022-08-02T12:00:53.655Z,30.30
2022-08-02T12:06:06.129Z,30.90
2022-08-02T12:11:08.593Z,30.90
2022-08-02T12:16:31.429Z,29.40
2022-08-02T12:21:33.699Z,29.10
2022-08-02T12:26:47.500Z,28.60
2022-08-02T12:31:57.635Z,29.50
2022-08-02T12:37:09.322Z,30.70
2022-08-02T12:42:16.138Z,31.50
2022-08-02T12:47:19.088Z,30.30
2022-08-02T12:52:24.768Z,30.30
2022-08-02T12:57:26.835Z,31.50
2022-08-02T13:02:28.815Z,31.10
2022-08-02T13:07:30.985Z,30.10
2022-08-02T13:12:34.425Z,30.00
2022-08-02T13:17:37.180Z,30.60
2022-08-02T13:22:39.255Z,29.70
2022-08-02T13:27:54.983Z,28.70
2022-08-02T13:33:00.977Z,27.90
2022-08-02T13:38:04.456Z,27.90
2022-08-02T13:43:06.469Z,27.50
2022-08-02T13:48:16.824Z,27.20
2022-08-02T13:53:20.271Z,27.10
2022-08-02T13:58:22.222Z,27.00
2022-08-02T14:03:25.631Z,26.90
2022-08-02T14:08:47.801Z,26.70
2022-08-02T14:13:49.734Z,26.50
2022-08-02T14:18:52.848Z,26.40
2022-08-02T14:23:54.816Z,26.30
2022-08-02T14:28:56.853Z,26.30
2022-08-02T14:33:58.851Z,26.20
2022-08-02T14:39:01.955Z,26.20
2022-08-02T14:44:04.717Z,26.10
2022-08-02T14:49:08.814Z,26.10
2022-08-02T14:54:13.217Z,26.20
2022-08-02T14:59:16.720Z,26.30
2022-08-02T15:04:18.676Z,26.90
2022-08-02T15:09:21.953Z,28.10
2022-08-02T15:14:26.313Z,28.20
2022-08-02T15:19:36.103Z,27.60
2022-08-02T15:24:51.631Z,27.20
2022-08-02T15:29:59.860Z,27.00
2022-08-02T15:35:01.975Z,26.80
2022-08-02T15:40:04.565Z,26.70
2022-08-02T15:45:07.176Z,26.70
2022-08-02T15:50:15.343Z,28.30
2022-08-02T15:55:17.784Z,28.40
2022-08-02T16:00:20.476Z,28.00
2022-08-02T16:05:24.521Z,27.40
2022-08-02T16:10:26.688Z,27.60
2022-08-02T16:15:28.674Z,28.00
2022-08-02T16:20:30.635Z,28.10
2022-08-02T16:25:32.652Z,27.70
2022-08-02T16:30:35.236Z,27.40
2022-08-02T16:35:37.192Z,27.20
2022-08-02T16:40:39.157Z,27.20
2022-08-02T16:45:41.198Z,27.10
2022-08-02T16:50:47.395Z,27.00
2022-08-02T16:55:53.212Z,27.00
2022-08-02T17:00:55.372Z,27.20
2022-08-02T17:05:57.510Z,27.20
2022-08-02T17:11:03.372Z,27.10
2022-08-02T17:16:26.229Z,27.00
2022-08-02T17:21:28.788Z,26.90
2022-08-02T17:26:30.809Z,26.80
2022-08-02T17:31:37.278Z,26.60
2022-08-02T17:36:49.835Z,26.50
2022-08-02T17:41:52.265Z,26.50
2022-08-02T17:46:54.247Z,26.50
2022-08-02T17:52:48.234Z,26.40
2022-08-02T17:57:19.373Z,26.30
2022-08-02T18:02:21.541Z,26.10
2022-08-02T18:07:25.094Z,25.90
2022-08-02T18:12:27.700Z,25.50
2022-08-02T18:17:29.851Z,25.30
2022-08-02T18:22:31.777Z,24.90
2022-08-02T18:27:34.284Z,24.60
2022-08-02T18:34:00.467Z,24.30
2022-08-02T18:38:04.083Z,24.00
2022-08-02T18:43:14.398Z,23.70
2022-08-02T18:48:17.465Z,23.40
2022-08-02T18:53:39.296Z,23.00
2022-08-02T18:58:41.836Z,22.70
2022-08-02T19:03:49.301Z,22.40
2022-08-02T19:09:04.924Z,22.20
2022-08-02T19:14:13.494Z,22.00
2022-08-02T19:19:22.172Z,21.80
2022-08-02T19:24:24.479Z,21.70
2022-08-02T19:29:42.766Z,21.60
2022-08-02T19:34:51.634Z,21.50
2022-08-02T19:39:53.583Z,21.40
2022-08-02T19:44:55.454Z,21.30
2022-08-02T19:49:58.622Z,21.20
2022-08-02T19:56:01.097Z,21.10
2022-08-02T20:00:23.486Z,21.00
